sensor_id;sensor_type;location;lat;lon;timestamp;temperature;humidity
10536;DHT22;5316;49.538;8.352;2024-03-17T00:01:57;8.90;1.00
10536;DHT22;5316;49.538;8.352;2024-03-17T00:04:23;9.00;1.00
10536;DHT22;5316;49.538;8.352;2024-03-17T00:06:51;9.00;1.00
10536;DHT22;5316;49.538;8.352;2024-03-17T00:09:17;9.00;6.10
10536;DHT22;5316;49.538;8.352;2024-03-17T00:11:44;9.00;20.10
10536;DHT22;5316;49.538;8.352;2024-03-17T00:14:10;9.00;99.90
10536;DHT22;5316;49.538;8.352;2024-03-17T00:16:37;8.90;45.40
10536;DHT22;5316;49.538;8.352;2024-03-17T00:19:04;9.00;29.70
10536;DHT22;5316;49.538;8.352;2024-03-17T00:21:31;9.00;99.90
10536;DHT22;5316;49.538;8.352;2024-03-17T00:23:59;8.90;99.90
10536;DHT22;5316;49.538;8.352;2024-03-17T00:26:25;8.90;1.00
10536;DHT22;5316;49.538;8.352;2024-03-17T00:28:51;8.90;99.90
10536;DHT22;5316;49.538;8.352;2024-03-17T00:31:18;9.00;99.90
10536;DHT22;5316;49.538;8.352;2024-03-17T00:33:44;8.90;99.90
10536;DHT22;5316;49.538;8.352;2024-03-17T00:36:12;8.90;1.00
10536;DHT22;5316;49.538;8.352;2024-03-17T00:38:37;8.90;1.00
10536;DHT22;5316;49.538;8.352;2024-03-17T00:41:05;8.90;99.90
10536;DHT22;5316;49.538;8.352;2024-03-17T00:43:31;8.90;99.90
10536;DHT22;5316;49.538;8.352;2024-03-17T00:45:58;8.80;1.00
10536;DHT22;5316;49.538;8.352;2024-03-17T00:48:24;8.80;1.00
10536;DHT22;5316;49.538;8.352;2024-03-17T00:50:55;8.70;1.00
10536;DHT22;5316;49.538;8.352;2024-03-17T00:53:21;8.70;99.90
10536;DHT22;5316;49.538;8.352;2024-03-17T00:55:51;8.70;99.90
10536;DHT22;5316;49.538;8.352;2024-03-17T00:58:19;8.60;1.00
10536;DHT22;5316;49.538;8.352;2024-03-17T01:00:45;8.60;1.00
10536;DHT22;5316;49.538;8.352;2024-03-17T01:03:13;8.60;1.00
10536;DHT22;5316;49.538;8.352;2024-03-17T01:05:40;8.50;99.90
10536;DHT22;5316;49.538;8.352;2024-03-17T01:08:08;8.50;1.00
10536;DHT22;5316;49.538;8.352;2024-03-17T01:10:37;8.50;1.00
10536;DHT22;5316;49.538;8.352;2024-03-17T01:13:03;8.40;99.90
10536;DHT22;5316;49.538;8.352;2024-03-17T01:15:32;8.40;99.90
10536;DHT22;5316;49.538;8.352;2024-03-17T01:17:57;8.40;99.90
10536;DHT22;5316;49.538;8.352;2024-03-17T01:20:25;8.40;99.90
10536;DHT22;5316;49.538;8.352;2024-03-17T01:22:50;8.40;99.90
10536;DHT22;5316;49.538;8.352;2024-03-17T01:25:18;8.30;99.90
10536;DHT22;5316;49.538;8.352;2024-03-17T01:27:43;8.30;99.90
10536;DHT22;5316;49.538;8.352;2024-03-17T01:30:11;8.30;99.90
10536;DHT22;5316;49.538;8.352;2024-03-17T01:32:38;8.30;1.00
10536;DHT22;5316;49.538;8.352;2024-03-17T01:35:05;8.30;1.00
10536;DHT22;5316;49.538;8.352;2024-03-17T01:37:31;8.30;1.00
10536;DHT22;5316;49.538;8.352;2024-03-17T01:39:58;8.30;1.00
10536;DHT22;5316;49.538;8.352;2024-03-17T01:42:24;8.30;1.00
10536;DHT22;5316;49.538;8.352;2024-03-17T01:44:51;8.30;1.00
10536;DHT22;5316;49.538;8.352;2024-03-17T01:47:17;8.30;1.00
10536;DHT22;5316;49.538;8.352;2024-03-17T01:49:46;8.30;99.90
10536;DHT22;5316;49.538;8.352;2024-03-17T01:52:13;8.30;99.90
10536;DHT22;5316;49.538;8.352;2024-03-17T01:54:40;8.30;99.90
10536;DHT22;5316;49.538;8.352;2024-03-17T01:57:06;8.30;99.90
10536;DHT22;5316;49.538;8.352;2024-03-17T01:59:33;8.30;99.90
10536;DHT22;5316;49.538;8.352;2024-03-17T02:01:59;8.30;99.90
10536;DHT22;5316;49.538;8.352;2024-03-17T02:04:26;8.20;99.90
10536;DHT22;5316;49.538;8.352;2024-03-17T02:06:53;8.20;99.90
10536;DHT22;5316;49.538;8.352;2024-03-17T02:09:20;8.20;1.00
10536;DHT22;5316;49.538;8.352;2024-03-17T02:11:47;8.10;1.00
10536;DHT22;5316;49.538;8.352;2024-03-17T02:14:14;8.20;1.00
10536;DHT22;5316;49.538;8.352;2024-03-17T02:16:42;8.10;1.00
10536;DHT22;5316;49.538;8.352;2024-03-17T02:19:09;8.00;1.00
10536;DHT22;5316;49.538;8.352;2024-03-17T02:21:35;7.90;2.30
10536;DHT22;5316;49.538;8.352;2024-03-17T02:24:04;7.90;46.50
10536;DHT22;5316;49.538;8.352;2024-03-17T02:26:30;7.80;99.90
10536;DHT22;5316;49.538;8.352;2024-03-17T02:28:57;7.80;99.90
10536;DHT22;5316;49.538;8.352;2024-03-17T02:31:22;7.70;99.90
10536;DHT22;5316;49.538;8.352;2024-03-17T02:33:49;7.70;99.90
10536;DHT22;5316;49.538;8.352;2024-03-17T02:36:15;7.70;99.90
10536;DHT22;5316;49.538;8.352;2024-03-17T02:38:43;7.70;99.90
10536;DHT22;5316;49.538;8.352;2024-03-17T02:41:28;7.70;99.90
10536;DHT22;5316;49.538;8.352;2024-03-17T02:43:55;7.70;99.90
10536;DHT22;5316;49.538;8.352;2024-03-17T02:46:22;7.70;99.90
10536;DHT22;5316;49.538;8.352;2024-03-17T02:48:51;7.70;99.90
10536;DHT22;5316;49.538;8.352;2024-03-17T02:51:20;7.70;99.90
10536;DHT22;5316;49.538;8.352;2024-03-17T02:53:47;7.70;99.90
10536;DHT22;5316;49.538;8.352;2024-03-17T02:56:15;7.70;99.90
10536;DHT22;5316;49.538;8.352;2024-03-17T02:58:45;7.70;99.90
10536;DHT22;5316;49.538;8.352;2024-03-17T03:01:12;7.70;99.90
10536;DHT22;5316;49.538;8.352;2024-03-17T03:03:40;7.70;99.90
10536;DHT22;5316;49.538;8.352;2024-03-17T03:06:07;7.60;99.90
10536;DHT22;5316;49.538;8.352;2024-03-17T03:08:37;7.60;99.90
10536;DHT22;5316;49.538;8.352;2024-03-17T03:11:06;7.60;99.90
10536;DHT22;5316;49.538;8.352;2024-03-17T03:13:36;7.60;99.90
10536;DHT22;5316;49.538;8.352;2024-03-17T03:16:05;7.60;99.90
10536;DHT22;5316;49.538;8.352;2024-03-17T03:18:32;7.60;99.90
10536;DHT22;5316;49.538;8.352;2024-03-17T03:20:59;7.50;99.90
10536;DHT22;5316;49.538;8.352;2024-03-17T03:23:26;7.50;99.90
10536;DHT22;5316;49.538;8.352;2024-03-17T03:25:55;7.40;99.90
10536;DHT22;5316;49.538;8.352;2024-03-17T03:28:22;7.40;99.90
10536;DHT22;5316;49.538;8.352;2024-03-17T03:30:49;7.40;99.90
10536;DHT22;5316;49.538;8.352;2024-03-17T03:33:18;7.40;99.90
10536;DHT22;5316;49.538;8.352;2024-03-17T03:35:44;7.30;99.90
10536;DHT22;5316;49.538;8.352;2024-03-17T03:38:12;7.30;99.90
10536;DHT22;5316;49.538;8.352;2024-03-17T03:40:39;7.30;99.90
10536;DHT22;5316;49.538;8.352;2024-03-17T03:43:06;7.30;99.90
10536;DHT22;5316;49.538;8.352;2024-03-17T03:45:36;7.30;99.90
10536;DHT22;5316;49.538;8.352;2024-03-17T03:48:04;7.30;99.90
10536;DHT22;5316;49.538;8.352;2024-03-17T03:50:32;7.20;99.90
10536;DHT22;5316;49.538;8.352;2024-03-17T03:52:59;7.20;99.90
10536;DHT22;5316;49.538;8.352;2024-03-17T03:55:26;7.20;99.90
10536;DHT22;5316;49.538;8.352;2024-03-17T03:57:53;7.20;99.90
10536;DHT22;5316;49.538;8.352;2024-03-17T04:00:21;7.10;99.90
10536;DHT22;5316;49.538;8.352;2024-03-17T04:02:48;7.10;99.90
10536;DHT22;5316;49.538;8.352;2024-03-17T04:05:16;7.10;99.90
10536;DHT22;5316;49.538;8.352;2024-03-17T04:07:45;7.10;99.90
10536;DHT22;5316;49.538;8.352;2024-03-17T04:10:12;7.00;99.90
10536;DHT22;5316;49.538;8.352;2024-03-17T04:12:39;7.00;99.90
10536;DHT22;5316;49.538;8.352;2024-03-17T04:15:06;7.00;99.90
10536;DHT22;5316;49.538;8.352;2024-03-17T04:17:35;6.90;99.90
10536;DHT22;5316;49.538;8.352;2024-03-17T04:20:03;6.90;99.90
10536;DHT22;5316;49.538;8.352;2024-03-17T04:22:30;6.90;99.90
10536;DHT22;5316;49.538;8.352;2024-03-17T04:24:58;6.90;99.90
10536;DHT22;5316;49.538;8.352;2024-03-17T04:27:25;6.80;99.90
10536;DHT22;5316;49.538;8.352;2024-03-17T04:29:52;6.80;99.90
10536;DHT22;5316;49.538;8.352;2024-03-17T04:32:19;6.80;99.90
10536;DHT22;5316;49.538;8.352;2024-03-17T04:34:47;6.80;99.90
10536;DHT22;5316;49.538;8.352;2024-03-17T04:37:14;6.80;99.90
10536;DHT22;5316;49.538;8.352;2024-03-17T04:39:41;6.80;99.90
10536;DHT22;5316;49.538;8.352;2024-03-17T04:42:10;6.80;99.90
10536;DHT22;5316;49.538;8.352;2024-03-17T04:44:37;6.80;99.90
10536;DHT22;5316;49.538;8.352;2024-03-17T04:47:05;6.90;99.90
10536;DHT22;5316;49.538;8.352;2024-03-17T04:49:32;6.80;99.90
10536;DHT22;5316;49.538;8.352;2024-03-17T04:51:59;6.80;99.90
10536;DHT22;5316;49.538;8.352;2024-03-17T04:54:26;6.90;99.90
10536;DHT22;5316;49.538;8.352;2024-03-17T04:56:52;6.90;99.90
10536;DHT22;5316;49.538;8.352;2024-03-17T04:59:21;6.90;99.90
10536;DHT22;5316;49.538;8.352;2024-03-17T05:01:47;7.00;99.90
10536;DHT22;5316;49.538;8.352;2024-03-17T05:04:14;7.00;99.90
10536;DHT22;5316;49.538;8.352;2024-03-17T05:06:41;6.90;99.90
10536;DHT22;5316;49.538;8.352;2024-03-17T05:09:11;6.90;99.90
10536;DHT22;5316;49.538;8.352;2024-03-17T05:11:39;6.90;99.90
10536;DHT22;5316;49.538;8.352;2024-03-17T05:14:06;6.90;99.90
10536;DHT22;5316;49.538;8.352;2024-03-17T05:16:34;7.00;99.90
10536;DHT22;5316;49.538;8.352;2024-03-17T05:19:01;6.90;99.90
10536;DHT22;5316;49.538;8.352;2024-03-17T05:21:29;7.00;99.90
10536;DHT22;5316;49.538;8.352;2024-03-17T05:23:56;7.00;99.90
10536;DHT22;5316;49.538;8.352;2024-03-17T05:26:23;7.00;99.90
10536;DHT22;5316;49.538;8.352;2024-03-17T05:28:51;7.00;99.90
10536;DHT22;5316;49.538;8.352;2024-03-17T05:31:17;7.00;99.90
10536;DHT22;5316;49.538;8.352;2024-03-17T05:33:47;6.90;99.90
10536;DHT22;5316;49.538;8.352;2024-03-17T05:36:14;7.00;99.90
10536;DHT22;5316;49.538;8.352;2024-03-17T05:38:41;7.00;99.90
10536;DHT22;5316;49.538;8.352;2024-03-17T05:41:09;7.00;99.90
10536;DHT22;5316;49.538;8.352;2024-03-17T05:43:37;7.00;99.90
10536;DHT22;5316;49.538;8.352;2024-03-17T05:46:05;7.00;99.90
10536;DHT22;5316;49.538;8.352;2024-03-17T05:48:32;7.00;99.90
10536;DHT22;5316;49.538;8.352;2024-03-17T05:51:02;7.00;99.90
10536;DHT22;5316;49.538;8.352;2024-03-17T05:53:29;6.90;99.90
10536;DHT22;5316;49.538;8.352;2024-03-17T05:55:58;6.90;99.90
10536;DHT22;5316;49.538;8.352;2024-03-17T05:58:25;6.80;99.90
10536;DHT22;5316;49.538;8.352;2024-03-17T06:00:52;6.80;99.90
10536;DHT22;5316;49.538;8.352;2024-03-17T06:03:18;6.80;99.90
10536;DHT22;5316;49.538;8.352;2024-03-17T06:05:45;6.80;99.90
10536;DHT22;5316;49.538;8.352;2024-03-17T06:08:14;6.70;99.90
10536;DHT22;5316;49.538;8.352;2024-03-17T06:10:44;6.80;99.90
10536;DHT22;5316;49.538;8.352;2024-03-17T06:13:11;6.80;99.90
10536;DHT22;5316;49.538;8.352;2024-03-17T06:15:39;6.80;99.90
10536;DHT22;5316;49.538;8.352;2024-03-17T06:18:06;6.70;99.90
10536;DHT22;5316;49.538;8.352;2024-03-17T06:20:34;6.70;99.90
10536;DHT22;5316;49.538;8.352;2024-03-17T06:23:01;6.80;99.90
10536;DHT22;5316;49.538;8.352;2024-03-17T06:25:29;6.80;99.90
10536;DHT22;5316;49.538;8.352;2024-03-17T06:27:56;6.70;99.90
10536;DHT22;5316;49.538;8.352;2024-03-17T06:30:23;6.70;99.90
10536;DHT22;5316;49.538;8.352;2024-03-17T06:32:50;6.70;99.90
10536;DHT22;5316;49.538;8.352;2024-03-17T06:35:17;6.70;99.90
10536;DHT22;5316;49.538;8.352;2024-03-17T06:37:44;6.70;99.90
10536;DHT22;5316;49.538;8.352;2024-03-17T06:40:13;6.70;99.90
10536;DHT22;5316;49.538;8.352;2024-03-17T06:42:42;6.80;99.90
10536;DHT22;5316;49.538;8.352;2024-03-17T06:45:09;6.80;99.90
10536;DHT22;5316;49.538;8.352;2024-03-17T06:47:36;6.90;99.90
10536;DHT22;5316;49.538;8.352;2024-03-17T06:50:03;6.90;99.90
10536;DHT22;5316;49.538;8.352;2024-03-17T06:52:29;7.00;99.90
10536;DHT22;5316;49.538;8.352;2024-03-17T06:54:56;6.90;99.90
10536;DHT22;5316;49.538;8.352;2024-03-17T06:57:24;7.00;99.90
10536;DHT22;5316;49.538;8.352;2024-03-17T06:59:53;7.00;99.90
10536;DHT22;5316;49.538;8.352;2024-03-17T07:02:20;7.10;99.90
10536;DHT22;5316;49.538;8.352;2024-03-17T07:04:47;7.10;99.90
10536;DHT22;5316;49.538;8.352;2024-03-17T07:07:14;7.20;99.90
10536;DHT22;5316;49.538;8.352;2024-03-17T07:09:41;7.20;99.90
10536;DHT22;5316;49.538;8.352;2024-03-17T07:12:09;7.30;99.90
10536;DHT22;5316;49.538;8.352;2024-03-17T07:14:36;7.30;99.90
10536;DHT22;5316;49.538;8.352;2024-03-17T07:17:05;7.40;99.90
10536;DHT22;5316;49.538;8.352;2024-03-17T07:19:32;7.50;99.90
10536;DHT22;5316;49.538;8.352;2024-03-17T07:22:01;7.50;99.90
10536;DHT22;5316;49.538;8.352;2024-03-17T07:24:30;7.60;99.90
10536;DHT22;5316;49.538;8.352;2024-03-17T07:26:56;7.70;99.90
10536;DHT22;5316;49.538;8.352;2024-03-17T07:29:23;7.80;91.30
10536;DHT22;5316;49.538;8.352;2024-03-17T07:31:50;7.90;16.50
10536;DHT22;5316;49.538;8.352;2024-03-17T07:34:18;8.00;2.70
10536;DHT22;5316;49.538;8.352;2024-03-17T07:36:46;8.10;1.00
10536;DHT22;5316;49.538;8.352;2024-03-17T07:39:12;8.20;1.00
10536;DHT22;5316;49.538;8.352;2024-03-17T07:41:39;8.40;1.00
10536;DHT22;5316;49.538;8.352;2024-03-17T07:44:06;8.60;1.00
10536;DHT22;5316;49.538;8.352;2024-03-17T07:46:32;8.70;99.90
10536;DHT22;5316;49.538;8.352;2024-03-17T07:48:59;8.90;99.90
10536;DHT22;5316;49.538;8.352;2024-03-17T07:51:27;9.00;1.00
10536;DHT22;5316;49.538;8.352;2024-03-17T07:53:54;9.10;1.00
10536;DHT22;5316;49.538;8.352;2024-03-17T07:56:20;9.10;99.90
10536;DHT22;5316;49.538;8.352;2024-03-17T07:58:46;9.20;99.90
10536;DHT22;5316;49.538;8.352;2024-03-17T08:01:16;9.20;64.80
10536;DHT22;5316;49.538;8.352;2024-03-17T08:03:45;9.20;1.00
10536;DHT22;5316;49.538;8.352;2024-03-17T08:06:14;9.20;99.90
10536;DHT22;5316;49.538;8.352;2024-03-17T08:08:42;9.30;99.90
10536;DHT22;5316;49.538;8.352;2024-03-17T08:11:09;9.30;99.90
10536;DHT22;5316;49.538;8.352;2024-03-17T08:13:36;9.30;99.90
10536;DHT22;5316;49.538;8.352;2024-03-17T08:16:04;9.40;99.90
10536;DHT22;5316;49.538;8.352;2024-03-17T08:18:32;9.40;99.90
10536;DHT22;5316;49.538;8.352;2024-03-17T08:21:00;9.50;1.00
10536;DHT22;5316;49.538;8.352;2024-03-17T08:23:27;9.50;1.00
10536;DHT22;5316;49.538;8.352;2024-03-17T08:25:55;9.60;1.00
10536;DHT22;5316;49.538;8.352;2024-03-17T08:28:24;9.70;99.90
10536;DHT22;5316;49.538;8.352;2024-03-17T08:30:52;9.90;99.90
10536;DHT22;5316;49.538;8.352;2024-03-17T08:33:19;9.90;91.20
10536;DHT22;5316;49.538;8.352;2024-03-17T08:35:55;9.90;1.00
10536;DHT22;5316;49.538;8.352;2024-03-17T08:38:22;10.00;1.00
10536;DHT22;5316;49.538;8.352;2024-03-17T08:40:49;10.00;1.00
10536;DHT22;5316;49.538;8.352;2024-03-17T08:43:18;10.10;1.00
10536;DHT22;5316;49.538;8.352;2024-03-17T08:45:45;10.10;99.90
10536;DHT22;5316;49.538;8.352;2024-03-17T08:48:11;10.20;99.90
10536;DHT22;5316;49.538;8.352;2024-03-17T08:50:38;10.20;99.90
10536;DHT22;5316;49.538;8.352;2024-03-17T08:53:05;10.30;99.90
10536;DHT22;5316;49.538;8.352;2024-03-17T08:55:32;10.40;99.90
10536;DHT22;5316;49.538;8.352;2024-03-17T08:57:59;10.40;99.90
10536;DHT22;5316;49.538;8.352;2024-03-17T09:00:27;10.60;99.90
10536;DHT22;5316;49.538;8.352;2024-03-17T09:02:55;10.60;99.90
10536;DHT22;5316;49.538;8.352;2024-03-17T09:05:22;10.70;90.00
10536;DHT22;5316;49.538;8.352;2024-03-17T09:07:49;10.80;99.90
10536;DHT22;5316;49.538;8.352;2024-03-17T09:10:16;10.90;93.50
10536;DHT22;5316;49.538;8.352;2024-03-17T09:12:43;10.90;98.60
10536;DHT22;5316;49.538;8.352;2024-03-17T09:15:09;11.10;62.80
10536;DHT22;5316;49.538;8.352;2024-03-17T09:17:38;11.20;1.00
10536;DHT22;5316;49.538;8.352;2024-03-17T09:20:06;11.20;1.00
10536;DHT22;5316;49.538;8.352;2024-03-17T09:22:36;11.20;1.00
10536;DHT22;5316;49.538;8.352;2024-03-17T09:25:05;11.20;1.00
10536;DHT22;5316;49.538;8.352;2024-03-17T09:27:33;11.20;1.00
10536;DHT22;5316;49.538;8.352;2024-03-17T09:30:02;11.30;1.00
10536;DHT22;5316;49.538;8.352;2024-03-17T09:32:31;11.20;1.00
10536;DHT22;5316;49.538;8.352;2024-03-17T09:34:59;11.20;1.00
10536;DHT22;5316;49.538;8.352;2024-03-17T09:37:26;11.30;1.00
10536;DHT22;5316;49.538;8.352;2024-03-17T09:39:53;11.30;1.00
10536;DHT22;5316;49.538;8.352;2024-03-17T09:42:22;11.40;1.00
10536;DHT22;5316;49.538;8.352;2024-03-17T09:44:50;11.50;1.00
10536;DHT22;5316;49.538;8.352;2024-03-17T09:47:20;11.50;1.00
10536;DHT22;5316;49.538;8.352;2024-03-17T09:49:47;11.50;1.00
10536;DHT22;5316;49.538;8.352;2024-03-17T09:52:20;11.60;1.00
10536;DHT22;5316;49.538;8.352;2024-03-17T09:54:59;11.60;1.00
10536;DHT22;5316;49.538;8.352;2024-03-17T09:57:28;11.70;1.00
10536;DHT22;5316;49.538;8.352;2024-03-17T09:59:55;11.80;1.00
10536;DHT22;5316;49.538;8.352;2024-03-17T10:02:22;11.80;1.00
10536;DHT22;5316;49.538;8.352;2024-03-17T10:04:49;12.00;99.90
10536;DHT22;5316;49.538;8.352;2024-03-17T10:07:17;12.10;99.90
10536;DHT22;5316;49.538;8.352;2024-03-17T10:09:44;12.20;99.90
10536;DHT22;5316;49.538;8.352;2024-03-17T10:12:29;12.20;99.90
10536;DHT22;5316;49.538;8.352;2024-03-17T10:15:00;12.30;99.90
10536;DHT22;5316;49.538;8.352;2024-03-17T10:17:31;12.30;99.90
10536;DHT22;5316;49.538;8.352;2024-03-17T10:20:12;12.40;99.90
10536;DHT22;5316;49.538;8.352;2024-03-17T10:22:57;12.50;99.90
10536;DHT22;5316;49.538;8.352;2024-03-17T10:25:25;12.60;99.90
10536;DHT22;5316;49.538;8.352;2024-03-17T10:27:52;12.60;99.90
10536;DHT22;5316;49.538;8.352;2024-03-17T10:30:19;12.70;99.90
10536;DHT22;5316;49.538;8.352;2024-03-17T10:32:52;12.80;99.90
10536;DHT22;5316;49.538;8.352;2024-03-17T10:35:32;12.90;99.90
10536;DHT22;5316;49.538;8.352;2024-03-17T10:38:02;13.10;99.90
10536;DHT22;5316;49.538;8.352;2024-03-17T10:40:30;13.20;99.90
10536;DHT22;5316;49.538;8.352;2024-03-17T10:42:59;13.30;99.90
10536;DHT22;5316;49.538;8.352;2024-03-17T10:45:27;13.50;95.50
10536;DHT22;5316;49.538;8.352;2024-03-17T10:47:56;13.60;66.60
10536;DHT22;5316;49.538;8.352;2024-03-17T10:50:30;13.70;36.00
10536;DHT22;5316;49.538;8.352;2024-03-17T10:53:02;13.80;1.00
10536;DHT22;5316;49.538;8.352;2024-03-17T10:55:45;13.90;1.00
10536;DHT22;5316;49.538;8.352;2024-03-17T10:58:23;14.00;1.00
10536;DHT22;5316;49.538;8.352;2024-03-17T11:00:53;14.10;1.00
10536;DHT22;5316;49.538;8.352;2024-03-17T11:03:20;14.10;1.00
10536;DHT22;5316;49.538;8.352;2024-03-17T11:05:48;14.30;1.00
10536;DHT22;5316;49.538;8.352;2024-03-17T11:08:18;14.40;1.00
10536;DHT22;5316;49.538;8.352;2024-03-17T11:10:52;14.50;1.00
10536;DHT22;5316;49.538;8.352;2024-03-17T11:13:23;14.50;1.00
10536;DHT22;5316;49.538;8.352;2024-03-17T11:15:50;14.60;1.00
10536;DHT22;5316;49.538;8.352;2024-03-17T11:21:20;14.60;1.00
10536;DHT22;5316;49.538;8.352;2024-03-17T11:24:02;14.70;1.00
10536;DHT22;5316;49.538;8.352;2024-03-17T11:26:31;14.70;1.00
10536;DHT22;5316;49.538;8.352;2024-03-17T11:28:58;14.80;1.00
10536;DHT22;5316;49.538;8.352;2024-03-17T11:31:47;14.80;1.00
10536;DHT22;5316;49.538;8.352;2024-03-17T11:34:31;14.80;1.00
10536;DHT22;5316;49.538;8.352;2024-03-17T11:36:59;14.90;1.00
10536;DHT22;5316;49.538;8.352;2024-03-17T11:39:54;14.90;99.90
10536;DHT22;5316;49.538;8.352;2024-03-17T11:42:25;14.90;99.90
10536;DHT22;5316;49.538;8.352;2024-03-17T11:45:05;15.00;99.90
10536;DHT22;5316;49.538;8.352;2024-03-17T11:47:37;15.00;99.90
10536;DHT22;5316;49.538;8.352;2024-03-17T11:50:05;15.00;99.90
10536;DHT22;5316;49.538;8.352;2024-03-17T11:52:33;15.10;99.90
10536;DHT22;5316;49.538;8.352;2024-03-17T11:55:00;15.20;99.90
10536;DHT22;5316;49.538;8.352;2024-03-17T11:57:27;15.20;99.90
10536;DHT22;5316;49.538;8.352;2024-03-17T11:59:54;15.20;99.90
10536;DHT22;5316;49.538;8.352;2024-03-17T12:02:22;15.20;99.90
10536;DHT22;5316;49.538;8.352;2024-03-17T12:04:49;15.20;99.90
10536;DHT22;5316;49.538;8.352;2024-03-17T12:07:17;15.20;99.90
10536;DHT22;5316;49.538;8.352;2024-03-17T12:09:45;15.30;99.90
10536;DHT22;5316;49.538;8.352;2024-03-17T12:12:17;15.20;99.90
10536;DHT22;5316;49.538;8.352;2024-03-17T12:14:43;15.20;99.90
10536;DHT22;5316;49.538;8.352;2024-03-17T12:17:10;15.20;99.90
10536;DHT22;5316;49.538;8.352;2024-03-17T12:19:37;15.10;99.90
10536;DHT22;5316;49.538;8.352;2024-03-17T12:22:05;15.10;99.90
10536;DHT22;5316;49.538;8.352;2024-03-17T12:24:32;15.10;99.90
10536;DHT22;5316;49.538;8.352;2024-03-17T12:27:00;15.20;99.90
10536;DHT22;5316;49.538;8.352;2024-03-17T12:29:30;15.30;99.90
10536;DHT22;5316;49.538;8.352;2024-03-17T12:31:59;15.30;99.90
10536;DHT22;5316;49.538;8.352;2024-03-17T12:34:28;15.30;99.90
10536;DHT22;5316;49.538;8.352;2024-03-17T12:36:56;15.30;99.90
10536;DHT22;5316;49.538;8.352;2024-03-17T12:39:24;15.40;99.90
10536;DHT22;5316;49.538;8.352;2024-03-17T12:42:04;15.30;99.90
10536;DHT22;5316;49.538;8.352;2024-03-17T12:44:32;15.40;99.90
10536;DHT22;5316;49.538;8.352;2024-03-17T12:47:00;15.40;99.90
10536;DHT22;5316;49.538;8.352;2024-03-17T12:49:27;15.40;99.90
10536;DHT22;5316;49.538;8.352;2024-03-17T12:51:54;15.40;99.90
10536;DHT22;5316;49.538;8.352;2024-03-17T12:54:22;15.50;99.90
10536;DHT22;5316;49.538;8.352;2024-03-17T12:56:50;15.50;99.90
10536;DHT22;5316;49.538;8.352;2024-03-17T12:59:40;15.50;99.90
10536;DHT22;5316;49.538;8.352;2024-03-17T13:02:33;15.50;99.90
10536;DHT22;5316;49.538;8.352;2024-03-17T13:05:16;15.50;99.90
10536;DHT22;5316;49.538;8.352;2024-03-17T13:10:11;15.50;99.90
10536;DHT22;5316;49.538;8.352;2024-03-17T13:12:39;15.50;99.90
10536;DHT22;5316;49.538;8.352;2024-03-17T13:15:09;15.50;99.90
10536;DHT22;5316;49.538;8.352;2024-03-17T13:17:37;15.60;99.90
10536;DHT22;5316;49.538;8.352;2024-03-17T13:20:06;15.60;99.90
10536;DHT22;5316;49.538;8.352;2024-03-17T13:22:34;15.60;99.90
10536;DHT22;5316;49.538;8.352;2024-03-17T13:25:04;15.60;99.90
10536;DHT22;5316;49.538;8.352;2024-03-17T13:27:31;15.60;99.90
10536;DHT22;5316;49.538;8.352;2024-03-17T13:29:57;15.60;99.90
10536;DHT22;5316;49.538;8.352;2024-03-17T13:32:26;15.70;99.90
10536;DHT22;5316;49.538;8.352;2024-03-17T13:34:53;15.70;99.90
10536;DHT22;5316;49.538;8.352;2024-03-17T13:37:20;15.80;99.90
10536;DHT22;5316;49.538;8.352;2024-03-17T13:39:47;15.80;99.90
10536;DHT22;5316;49.538;8.352;2024-03-17T13:42:15;15.80;99.90
10536;DHT22;5316;49.538;8.352;2024-03-17T13:44:41;15.80;99.90
10536;DHT22;5316;49.538;8.352;2024-03-17T13:47:08;15.80;99.90
10536;DHT22;5316;49.538;8.352;2024-03-17T13:49:36;15.80;99.90
10536;DHT22;5316;49.538;8.352;2024-03-17T13:52:03;15.70;99.90
10536;DHT22;5316;49.538;8.352;2024-03-17T13:54:31;15.80;99.90
10536;DHT22;5316;49.538;8.352;2024-03-17T13:56:58;15.80;99.90
10536;DHT22;5316;49.538;8.352;2024-03-17T13:59:27;15.90;99.90
10536;DHT22;5316;49.538;8.352;2024-03-17T14:01:54;15.90;99.90
10536;DHT22;5316;49.538;8.352;2024-03-17T14:04:21;16.00;99.90
10536;DHT22;5316;49.538;8.352;2024-03-17T14:06:49;16.00;99.90
10536;DHT22;5316;49.538;8.352;2024-03-17T14:09:17;16.10;99.90
10536;DHT22;5316;49.538;8.352;2024-03-17T14:11:44;16.10;99.90
10536;DHT22;5316;49.538;8.352;2024-03-17T14:14:11;16.20;99.90
10536;DHT22;5316;49.538;8.352;2024-03-17T14:16:38;16.20;99.90
10536;DHT22;5316;49.538;8.352;2024-03-17T14:19:06;16.30;99.90
10536;DHT22;5316;49.538;8.352;2024-03-17T14:21:33;16.30;99.90
10536;DHT22;5316;49.538;8.352;2024-03-17T14:24:01;16.30;99.90
10536;DHT22;5316;49.538;8.352;2024-03-17T14:26:31;16.40;99.90
10536;DHT22;5316;49.538;8.352;2024-03-17T14:28:58;16.30;99.90
10536;DHT22;5316;49.538;8.352;2024-03-17T14:31:25;16.40;99.90
10536;DHT22;5316;49.538;8.352;2024-03-17T14:33:52;16.40;99.90
10536;DHT22;5316;49.538;8.352;2024-03-17T14:36:19;16.40;99.90
10536;DHT22;5316;49.538;8.352;2024-03-17T14:38:52;16.50;99.90
10536;DHT22;5316;49.538;8.352;2024-03-17T14:41:20;16.60;99.90
10536;DHT22;5316;49.538;8.352;2024-03-17T14:43:46;16.80;99.90
10536;DHT22;5316;49.538;8.352;2024-03-17T14:46:13;17.00;99.90
10536;DHT22;5316;49.538;8.352;2024-03-17T14:48:40;17.30;99.90
10536;DHT22;5316;49.538;8.352;2024-03-17T14:51:08;17.40;99.90
10536;DHT22;5316;49.538;8.352;2024-03-17T14:53:35;17.50;99.90
10536;DHT22;5316;49.538;8.352;2024-03-17T14:56:08;17.70;99.90
10536;DHT22;5316;49.538;8.352;2024-03-17T14:58:36;17.90;99.90
10536;DHT22;5316;49.538;8.352;2024-03-17T15:01:03;18.10;99.90
10536;DHT22;5316;49.538;8.352;2024-03-17T15:03:29;18.30;99.90
10536;DHT22;5316;49.538;8.352;2024-03-17T15:05:56;18.60;98.20
10536;DHT22;5316;49.538;8.352;2024-03-17T15:08:23;18.60;48.20
10536;DHT22;5316;49.538;8.352;2024-03-17T15:10:49;18.80;36.80
10536;DHT22;5316;49.538;8.352;2024-03-17T15:13:17;19.10;28.80
10536;DHT22;5316;49.538;8.352;2024-03-17T15:15:45;19.70;7.40
10536;DHT22;5316;49.538;8.352;2024-03-17T15:18:13;20.30;1.00
10536;DHT22;5316;49.538;8.352;2024-03-17T15:20:39;20.70;1.00
10536;DHT22;5316;49.538;8.352;2024-03-17T15:23:06;20.80;1.00
10536;DHT22;5316;49.538;8.352;2024-03-17T15:25:34;20.50;1.00
10536;DHT22;5316;49.538;8.352;2024-03-17T15:28:01;20.10;1.00
10536;DHT22;5316;49.538;8.352;2024-03-17T15:30:28;19.70;1.00
10536;DHT22;5316;49.538;8.352;2024-03-17T15:32:56;19.40;1.00
10536;DHT22;5316;49.538;8.352;2024-03-17T15:35:23;19.00;1.00
10536;DHT22;5316;49.538;8.352;2024-03-17T15:37:52;18.90;1.00
10536;DHT22;5316;49.538;8.352;2024-03-17T15:40:19;18.90;1.00
10536;DHT22;5316;49.538;8.352;2024-03-17T15:42:46;18.90;1.00
10536;DHT22;5316;49.538;8.352;2024-03-17T15:45:14;18.70;1.00
10536;DHT22;5316;49.538;8.352;2024-03-17T15:47:41;18.50;1.00
10536;DHT22;5316;49.538;8.352;2024-03-17T15:50:09;18.30;17.20
10536;DHT22;5316;49.538;8.352;2024-03-17T15:52:36;18.00;51.40
10536;DHT22;5316;49.538;8.352;2024-03-17T15:55:04;17.80;74.50
10536;DHT22;5316;49.538;8.352;2024-03-17T15:57:32;17.60;99.90
10536;DHT22;5316;49.538;8.352;2024-03-17T15:59:59;17.40;99.90
10536;DHT22;5316;49.538;8.352;2024-03-17T16:02:26;17.30;99.90
10536;DHT22;5316;49.538;8.352;2024-03-17T16:04:53;17.10;99.90
10536;DHT22;5316;49.538;8.352;2024-03-17T16:07:22;16.90;99.90
10536;DHT22;5316;49.538;8.352;2024-03-17T16:09:50;16.70;99.90